Time;durP1;ratioP1;P1;durP2;ratioP2;P2;SDS_P1;SDS_P2;PMS_P1;PMS_P2;Temp;Humidity;BMP_temperature;BMP_pressure;BME280_temperature;BME280_humidity;BME280_pressure;Samples;Min_cycle;Max_cycle;Signal;HPM_P1;HPM_P2
2022/02/07 00:01:25;;;;;;;4.35;1.00;;;17.50;62.80;;;;;;4992722;28;20022;-82
2022/02/07 00:03:56;;;;;;;;;;;17.50;62.70;;;;;;4991638;28;20105;-77
2022/02/07 00:06:22;;;;;;;6.45;1.35;;;17.40;62.70;;;;;;4992286;28;19969;-78
2022/02/07 00:08:47;;;;;;;6.13;1.30;;;17.40;62.70;;;;;;4991223;28;20030;-81
2022/02/07 00:11:16;;;;;;;4.00;1.20;;;17.40;62.60;;;;;;4991934;28;20129;-78
2022/02/07 00:13:42;;;;;;;7.15;1.30;;;17.40;62.60;;;;;;4991703;28;20059;-81
2022/02/07 00:16:08;;;;;;;4.10;1.27;;;17.30;62.50;;;;;;4991876;28;20038;-82
2022/02/07 00:18:35;;;;;;;5.85;1.40;;;17.30;62.60;;;;;;4991742;28;20019;-82
2022/02/07 00:21:01;;;;;;;6.20;1.33;;;17.30;62.60;;;;;;4991974;28;20027;-82
2022/02/07 00:23:27;;;;;;;6.05;1.35;;;17.30;62.60;;;;;;4992175;28;20022;-78
2022/02/07 00:25:53;;;;;;;5.85;1.33;;;17.20;62.60;;;;;;4991680;28;20466;-78
2022/02/07 00:28:19;;;;;;;6.68;1.20;;;17.20;62.60;;;;;;4991817;28;20031;-80
2022/02/07 00:30:45;;;;;;;7.72;2.58;;;17.20;62.60;;;;;;4991694;28;20022;-79
2022/02/07 00:33:11;;;;;;;6.45;1.30;;;17.20;62.70;;;;;;4991815;28;20023;-81
2022/02/07 00:35:37;;;;;;;3.13;1.25;;;17.10;62.60;;;;;;4991485;28;20037;-84
2022/02/07 00:38:08;;;;;;;5.35;1.30;;;17.10;62.70;;;;;;4974305;28;20069;-82
2022/02/07 00:46:10;;;;;;;3.47;1.33;;;17.00;62.70;;;;;;4976112;28;20058;-85
2022/02/07 00:48:38;;;;;;;4.40;1.40;;;17.10;62.70;;;;;;4975899;28;20022;-84
2022/02/07 00:51:04;;;;;;;4.38;1.33;;;17.00;62.70;;;;;;4976177;28;20023;-80
2022/02/07 00:53:31;;;;;;;5.95;1.63;;;17.00;62.70;;;;;;4975786;28;20073;-78
2022/02/07 00:55:57;;;;;;;5.05;1.27;;;17.00;62.70;;;;;;4976240;28;20038;-81
2022/02/07 00:58:23;;;;;;;6.60;1.20;;;17.00;62.70;;;;;;4976053;28;20023;-79
2022/02/07 01:00:52;;;;;;;6.65;1.45;;;16.90;62.70;;;;;;4975744;28;20101;-83
2022/02/07 01:03:18;;;;;;;6.00;1.50;;;16.90;62.70;;;;;;4975758;28;20019;-84
2022/02/07 01:05:44;;;;;;;4.82;1.42;;;16.80;62.50;;;;;;4974208;28;20030;-79
2022/02/07 01:08:10;;;;;;;4.90;1.40;;;16.80;62.60;;;;;;4975850;28;20027;-80
2022/02/07 01:10:50;;;;;;;5.40;1.23;;;16.90;62.70;;;;;;4988408;28;20038;-79
2022/02/07 01:13:30;;;;;;;4.13;1.15;;;16.80;62.60;;;;;;4977507;28;20030;-83
2022/02/07 01:16:09;;;;;;;8.93;1.75;;;16.80;62.60;;;;;;4995454;28;20399;-82
2022/02/07 01:24:03;;;;;;;5.47;1.15;;;16.80;62.60;;;;;;4994770;28;20368;-83
2022/02/07 01:56:44;;;;;;;4.20;1.35;;;16.60;62.60;;;;;;4993541;28;20030;-79
2022/02/07 01:59:10;;;;;;;5.53;1.48;;;16.60;62.60;;;;;;4994247;28;20037;-80
2022/02/07 02:01:37;;;;;;;5.63;1.13;;;16.60;62.50;;;;;;4994068;28;20065;-80
2022/02/07 02:04:06;;;;;;;5.25;1.83;;;16.60;62.40;;;;;;4994314;28;20022;-78
2022/02/07 02:06:33;;;;;;;4.60;1.20;;;16.60;62.30;;;;;;4993937;28;20050;-79
2022/02/07 02:08:59;;;;;;;4.25;0.93;;;16.60;62.20;;;;;;4994059;28;20109;-82
2022/02/07 02:11:25;;;;;;;4.85;1.33;;;16.60;62.20;;;;;;4993995;28;20026;-83
2022/02/07 02:19:32;;;;;;;3.67;1.08;;;16.60;62.10;;;;;;4994069;28;20113;-83
2022/02/07 02:38:06;;;;;;;4.15;1.23;;;16.60;62.00;;;;;;4934277;29;20039;-80
2022/02/07 02:45:44;;;;;;;6.35;1.45;;;16.60;61.90;;;;;;4993192;28;20034;-84
2022/02/07 02:48:22;;;;;;;6.00;1.40;;;16.60;61.80;;;;;;4993409;28;20054;-83
2022/02/07 02:50:51;;;;;;;6.20;1.63;;;16.60;61.80;;;;;;4975113;28;20038;-80
2022/02/07 02:53:17;;;;;;;7.75;1.75;;;16.60;61.70;;;;;;4993370;28;20022;-82
2022/02/07 02:55:45;;;;;;;5.68;1.42;;;16.60;61.70;;;;;;4992924;28;20053;-84
2022/02/07 02:58:14;;;;;;;3.83;1.20;;;16.60;61.70;;;;;;4993125;28;20022;-79
2022/02/07 03:00:42;;;;;;;5.53;1.35;;;16.70;61.70;;;;;;4992735;28;20053;-82
2022/02/07 03:03:07;;;;;;;5.07;1.63;;;16.60;61.60;;;;;;4992595;28;20530;-80
2022/02/07 03:05:33;;;;;;;6.30;1.92;;;16.60;61.60;;;;;;4992669;28;20064;-82
2022/02/07 03:07:59;;;;;;;7.20;1.90;;;16.70;61.70;;;;;;4992435;28;20068;-79
2022/02/07 03:13:16;;;;;;;5.45;1.33;;;16.70;61.60;;;;;;4993121;28;20026;-81
2022/02/07 03:18:26;;;;;;;3.65;1.10;;;16.60;61.50;;;;;;4993207;28;20005;-83
2022/02/07 03:20:53;;;;;;;5.18;1.30;;;16.60;61.50;;;;;;4992450;28;20097;-79
2022/02/07 03:23:19;;;;;;;3.80;1.20;;;16.70;61.60;;;;;;4992732;28;20039;-78
2022/02/07 03:25:45;;;;;;;4.13;1.23;;;16.60;61.50;;;;;;4992606;28;20041;-81
2022/02/07 03:28:11;;;;;;;5.03;1.42;;;16.60;61.50;;;;;;4992782;28;20034;-77
2022/02/07 03:30:37;;;;;;;4.90;1.38;;;16.70;61.60;;;;;;4992601;28;20029;-81
2022/02/07 03:33:04;;;;;;;4.93;1.88;;;16.70;61.60;;;;;;4992999;28;20026;-86
2022/02/07 03:35:30;;;;;;;5.35;1.27;;;16.70;61.60;;;;;;4975000;28;20081;-78
2022/02/07 03:37:56;;;;;;;5.00;1.50;;;16.60;61.50;;;;;;4993141;28;20050;-81
2022/02/07 03:40:22;;;;;;;7.18;1.33;;;16.60;61.50;;;;;;4992482;28;20065;-82
2022/02/07 03:42:47;;;;;;;6.70;1.40;;;16.60;61.50;;;;;;4992430;28;20023;-82
2022/02/07 03:45:13;;;;;;;6.03;1.35;;;16.70;61.50;;;;;;4992453;28;20031;-81
2022/02/07 03:47:39;;;;;;;4.88;1.13;;;16.60;61.30;;;;;;4992149;28;20023;-77
2022/02/07 03:50:06;;;;;;;5.40;1.55;;;16.60;61.30;;;;;;4991684;28;20528;-80
2022/02/07 03:52:32;;;;;;;6.50;2.05;;;16.60;61.30;;;;;;4992158;28;20026;-78
2022/02/07 03:54:58;;;;;;;6.10;1.20;;;16.70;61.30;;;;;;4992524;28;20510;-78
2022/02/07 03:57:24;;;;;;;6.80;1.77;;;16.60;61.30;;;;;;4992317;28;20390;-79
2022/02/07 03:59:49;;;;;;;3.75;1.10;;;16.60;61.30;;;;;;4991972;28;20072;-76
2022/02/07 04:02:15;;;;;;;4.80;1.20;;;16.70;61.30;;;;;;4992225;28;20029;-81
2022/02/07 04:04:44;;;;;;;5.75;1.17;;;16.70;61.30;;;;;;4992051;28;20023;-85
2022/02/07 04:07:12;;;;;;;3.95;1.05;;;16.70;61.30;;;;;;4992122;28;20058;-82
2022/02/07 04:09:44;;;;;;;4.32;1.00;;;16.70;61.30;;;;;;4991914;28;20108;-86
2022/02/07 04:12:15;;;;;;;4.90;1.15;;;16.60;61.20;;;;;;4991663;28;20104;-80
2022/02/07 04:14:41;;;;;;;3.28;0.95;;;16.70;61.30;;;;;;4991923;28;20026;-81
2022/02/07 04:17:10;;;;;;;4.57;1.00;;;16.70;61.20;;;;;;4992171;28;20030;-79
2022/02/07 04:19:36;;;;;;;5.40;1.35;;;16.60;61.20;;;;;;4996969;28;20025;-81
2022/02/07 04:22:07;;;;;;;4.07;1.60;;;16.60;61.10;;;;;;4998681;28;20097;-81
2022/02/07 04:24:34;;;;;;;6.78;1.13;;;16.70;61.10;;;;;;4998464;28;20026;-83
2022/02/07 04:27:00;;;;;;;4.07;1.33;;;16.70;61.10;;;;;;4998851;28;20557;-81
2022/02/07 04:29:26;;;;;;;3.05;0.93;;;16.70;61.10;;;;;;4981300;28;20032;-77
2022/02/07 04:31:51;;;;;;;4.60;1.10;;;16.70;61.10;;;;;;4980655;28;20026;-79
2022/02/07 04:34:17;;;;;;;5.05;1.40;;;16.60;61.10;;;;;;4998275;28;20042;-84
2022/02/07 04:36:49;;;;;;;4.50;1.42;;;16.60;61.00;;;;;;4998428;28;20023;-83
2022/02/07 04:39:15;;;;;;;6.30;1.67;;;16.60;61.00;;;;;;4998531;28;20018;-79
2022/02/07 04:41:42;;;;;;;4.90;1.08;;;16.70;61.10;;;;;;4998190;28;20030;-77
2022/02/07 04:44:12;;;;;;;6.68;1.20;;;16.60;61.00;;;;;;4998307;28;20109;-81
2022/02/07 04:52:25;;;;;;;5.20;1.02;;;16.60;60.90;;;;;;4997968;28;20057;-83
2022/02/07 04:57:13;;;;;;;4.55;1.10;;;16.70;61.00;;;;;;4998338;28;20117;-82
2022/02/07 05:02:45;;;;;;;4.43;1.17;;;16.60;60.80;;;;;;4998389;28;20117;-84
2022/02/07 05:16:27;;;;;;;3.25;1.40;;;16.70;60.80;;;;;;4937866;29;20036;-82
2022/02/07 05:18:56;;;;;;;7.43;1.30;;;16.60;60.60;;;;;;4986387;28;20045;-83
2022/02/07 05:21:23;;;;;;;4.60;1.20;;;16.60;60.60;;;;;;4998179;28;20027;-83
2022/02/07 05:23:49;;;;;;;6.28;1.33;;;16.60;60.60;;;;;;4997890;28;20026;-79
2022/02/07 05:26:15;;;;;;;6.40;1.55;;;16.60;60.60;;;;;;4997943;28;20022;-81
2022/02/07 05:28:41;;;;;;;4.40;1.27;;;16.60;60.60;;;;;;4997424;28;20031;-80
2022/02/07 05:31:08;;;;;;;4.10;0.90;;;16.60;60.60;;;;;;4994704;28;20391;-80
2022/02/07 05:33:35;;;;;;;5.20;1.58;;;16.60;60.60;;;;;;4994733;28;20072;-83
2022/02/07 05:36:00;;;;;;;4.25;0.93;;;16.60;60.60;;;;;;4994896;28;20049;-83
2022/02/07 05:38:26;;;;;;;4.65;0.98;;;16.70;60.70;;;;;;4977904;28;20390;-82
2022/02/07 05:40:56;;;;;;;5.28;1.65;;;16.60;60.80;;;;;;4994818;28;20026;-86
2022/02/07 05:43:21;;;;;;;7.10;1.48;;;16.70;60.60;;;;;;4994991;28;20050;-85
2022/02/07 05:45:47;;;;;;;6.07;1.33;;;16.60;60.50;;;;;;4994698;28;20065;-84
2022/02/07 05:48:13;;;;;;;5.25;1.35;;;16.60;60.50;;;;;;4994427;28;20470;-82
2022/02/07 05:50:38;;;;;;;7.47;1.60;;;16.60;60.50;;;;;;4976970;28;20394;-81
2022/02/07 05:53:04;;;;;;;5.45;1.13;;;16.60;60.50;;;;;;4994766;28;20026;-85
2022/02/07 05:55:30;;;;;;;6.63;1.15;;;16.60;60.50;;;;;;4994467;28;20034;-78
2022/02/07 05:57:55;;;;;;;4.43;1.10;;;16.60;60.40;;;;;;4995024;28;20112;-83
2022/02/07 06:00:21;;;;;;;4.68;1.13;;;16.60;60.50;;;;;;4994257;28;20034;-81
2022/02/07 06:02:47;;;;;;;4.70;1.17;;;16.70;60.50;;;;;;4976493;28;20030;-85
2022/02/07 06:05:14;;;;;;;5.53;1.33;;;16.70;60.50;;;;;;4994377;28;20026;-82
2022/02/07 06:07:39;;;;;;;3.35;0.88;;;16.70;60.50;;;;;;4994536;28;20027;-81
2022/02/07 06:10:06;;;;;;;3.30;1.10;;;16.70;60.50;;;;;;4993805;28;20096;-81
2022/02/07 06:12:39;;;;;;;5.47;1.40;;;16.70;60.50;;;;;;4986547;28;20027;-80
2022/02/07 06:15:06;;;;;;;4.15;1.33;;;16.80;60.60;;;;;;4974573;28;20118;-82
2022/02/07 06:17:32;;;;;;;4.95;1.05;;;16.80;60.50;;;;;;4988523;28;20114;-80
2022/02/07 06:19:59;;;;;;;4.72;1.95;;;16.80;60.40;;;;;;4994030;28;20538;-82
2022/02/07 06:22:26;;;;;;;3.30;1.25;;;16.80;60.40;;;;;;4993894;28;20023;-79
2022/02/07 06:24:52;;;;;;;4.45;0.85;;;16.90;60.40;;;;;;4993460;28;20081;-79
2022/02/07 06:27:18;;;;;;;5.47;1.50;;;16.90;60.50;;;;;;4993419;28;20410;-79
2022/02/07 06:29:44;;;;;;;3.50;1.10;;;16.90;60.60;;;;;;4993104;28;20027;-80
2022/02/07 06:32:10;;;;;;;4.72;1.42;;;16.90;61.00;;;;;;4993588;28;20482;-77
2022/02/07 06:34:35;;;;;;;5.05;1.30;;;17.00;61.00;;;;;;4993169;28;20046;-77
2022/02/07 06:37:01;;;;;;;3.13;1.10;;;17.00;60.90;;;;;;4993427;28;20026;-77
2022/02/07 06:39:27;;;;;;;3.22;0.90;;;17.00;60.80;;;;;;4993727;28;20498;-78
2022/02/07 06:41:53;;;;;;;6.80;1.88;;;17.10;60.80;;;;;;4992901;28;20035;-78
2022/02/07 06:44:19;;;;;;;6.57;1.55;;;17.10;60.70;;;;;;4993307;28;20034;-77
2022/02/07 06:46:45;;;;;;;5.75;1.23;;;17.10;60.80;;;;;;4992441;28;20101;-78
2022/02/07 06:49:11;;;;;;;5.53;1.20;;;17.10;60.80;;;;;;4993107;28;20101;-78
2022/02/07 06:51:37;;;;;;;3.08;1.08;;;17.20;60.90;;;;;;4992320;28;20022;-78
2022/02/07 06:54:03;;;;;;;5.97;1.48;;;17.20;60.90;;;;;;4992496;28;20034;-78
2022/02/07 06:56:28;;;;;;;5.55;1.00;;;17.20;60.60;;;;;;4992976;28;20038;-78
2022/02/07 06:58:55;;;;;;;6.43;1.65;;;17.30;60.80;;;;;;4992715;28;20529;-77
2022/02/07 07:01:20;;;;;;;4.70;1.58;;;17.30;60.50;;;;;;4992834;28;20112;-77
2022/02/07 07:03:46;;;;;;;5.03;1.33;;;17.30;60.40;;;;;;4974829;28;20062;-77
2022/02/07 07:06:13;;;;;;;3.75;1.00;;;17.30;60.20;;;;;;4975396;28;20019;-77
2022/02/07 07:08:44;;;;;;;4.53;1.48;;;17.40;60.20;;;;;;4992558;28;20030;-78
2022/02/07 07:11:13;;;;;;;5.13;1.42;;;17.40;60.00;;;;;;4992678;28;20618;-77
2022/02/07 07:13:48;;;;;;;4.78;1.35;;;17.40;59.90;;;;;;4992106;28;20023;-77
2022/02/07 07:16:59;;;;;;;5.20;1.40;;;17.40;59.80;;;;;;4991379;28;20080;-77
2022/02/07 07:19:00;;;;;;;3.88;1.13;;;17.50;59.70;;;;;;4981900;28;20046;-77
2022/02/07 07:21:27;;;;;;;4.43;1.40;;;17.50;59.70;;;;;;4992264;28;20093;-77
2022/02/07 07:23:56;;;;;;;4.25;1.33;;;17.50;59.80;;;;;;4991724;28;20018;-77
2022/02/07 07:26:24;;;;;;;5.60;1.20;;;17.50;59.70;;;;;;4992480;28;20025;-78
2022/02/07 07:28:52;;;;;;;6.68;1.27;;;17.50;59.80;;;;;;4992165;28;20034;-79
2022/02/07 07:31:18;;;;;;;3.63;0.90;;;17.60;59.50;;;;;;4974557;28;20034;-78
2022/02/07 07:33:50;;;;;;;4.95;1.10;;;17.60;59.40;;;;;;4974759;28;20375;-79
2022/02/07 07:36:15;;;;;;;4.63;0.95;;;17.60;59.60;;;;;;4992275;28;20486;-80
2022/02/07 07:38:41;;;;;;;5.40;1.52;;;17.50;59.50;;;;;;4974158;28;20026;-78
2022/02/07 07:41:07;;;;;;;5.15;1.05;;;;;;;;;;4991637;28;20034;-78
2022/02/07 07:43:34;;;;;;;4.50;1.27;;;;;;;;;;4972601;28;20019;-78
2022/02/07 07:46:05;;;;;;;4.35;1.50;;;;;;;;;;4979461;28;20141;-80
2022/02/07 07:48:33;;;;;;;5.47;1.50;;;;;;;;;;4991144;28;20105;-77
2022/02/07 07:51:08;;;;;;;4.60;1.38;;;;;;;;;;4974985;28;20030;-78
2022/02/07 08:01:45;;;;;;;4.50;1.65;;;;;;;;;;4991603;28;20045;-79
2022/02/07 08:04:13;;;;;;;3.47;1.42;;;;;;;;;;4974499;28;20031;-80
2022/02/07 08:06:50;;;;;;;4.47;1.30;;;;;;;;;;4991175;28;20445;-79
2022/02/07 08:12:09;;;;;;;7.07;1.38;;;;;;;;;;4955359;28;20486;-79
2022/02/07 08:14:35;;;;;;;3.55;1.23;;;;;;;;;;4974112;28;20081;-80
2022/02/07 08:17:05;;;;;;;5.13;1.38;;;;;;;;;;4991400;28;20030;-87
2022/02/07 08:19:33;;;;;;;5.20;1.15;;;;;;;;;;4990841;28;20065;-80
2022/02/07 08:21:59;;;;;;;4.70;1.63;;;;;;;;;;4974551;28;20038;-81
2022/02/07 08:24:25;;;;;;;5.55;1.75;;;;;;;;;;4992061;28;20414;-82
2022/02/07 08:26:53;;;;;;;8.88;1.67;;;;;;;;;;4982342;28;20602;-81
2022/02/07 08:29:20;;;;;;;6.28;1.90;;;;;;;;;;4955067;28;20031;-81
2022/02/07 08:31:46;;;;;;;3.63;1.23;;;;;;;;;;4954704;28;20125;-81
2022/02/07 08:34:12;;;;;;;3.42;1.42;;;;;;;;;;4954788;28;20027;-82
2022/02/07 08:36:38;;;;;;;7.30;1.38;;;;;;;;;;4967999;28;20035;-80
2022/02/07 08:39:05;;;;;;;10.05;1.50;;;;;;;;;;4956741;28;20031;-80
2022/02/07 08:41:31;;;;;;;3.72;1.42;;;;;;;;;;4954522;28;20118;-81
2022/02/07 08:43:58;;;;;;;6.10;1.55;;;;;;;;;;4956428;28;20023;-83
2022/02/07 08:46:24;;;;;;;3.85;1.35;;;;;;;;;;4974033;28;20502;-81
2022/02/07 08:48:50;;;;;;;4.47;1.55;;;;;;;;;;4991218;28;20390;-81
2022/02/07 08:51:17;;;;;;;3.15;1.33;;;17.60;59.10;;;;;;4973647;28;20467;-79
2022/02/07 08:53:46;;;;;;;3.10;1.00;;;17.60;59.60;;;;;;4991250;28;20026;-80
2022/02/07 08:56:12;;;;;;;2.80;1.13;;;17.60;59.70;;;;;;4991326;28;20039;-80
2022/02/07 08:58:42;;;;;;;3.90;1.40;;;17.60;59.70;;;;;;4991349;28;20027;-81
2022/02/07 09:07:14;;;;;;;6.00;1.70;;;17.70;59.50;;;;;;4993356;28;20399;-80
2022/02/07 09:09:19;;;;;;;5.85;1.80;;;17.70;59.40;;;;;;4982054;28;20039;-81
2022/02/07 09:11:45;;;;;;;12.18;1.75;;;17.80;59.40;;;;;;4994660;28;20033;-81
2022/02/07 09:14:12;;;;;;;4.95;1.30;;;17.80;59.30;;;;;;4994779;28;20473;-82
2022/02/07 09:16:39;;;;;;;7.40;1.60;;;17.90;59.30;;;;;;4994749;28;20030;-82
2022/02/07 09:19:06;;;;;;;3.70;1.45;;;17.90;59.20;;;;;;4994848;28;20101;-80
2022/02/07 09:21:32;;;;;;;4.93;1.30;;;18.00;59.40;;;;;;4994591;28;20026;-81
2022/02/07 09:23:59;;;;;;;4.03;1.38;;;18.00;59.00;;;;;;4995215;28;20057;-77
2022/02/07 09:26:25;;;;;;;2.95;1.30;;;18.10;59.10;;;;;;4994931;28;20471;-78
2022/02/07 09:28:51;;;;;;;6.53;1.60;;;18.10;58.90;;;;;;4994456;28;20038;-79
2022/02/07 09:31:18;;;;;;;7.05;2.33;;;18.20;58.70;;;;;;4994534;28;20073;-79
2022/02/07 09:33:44;;;;;;;7.20;1.70;;;18.20;58.60;;;;;;4994107;28;20026;-78
2022/02/07 09:36:11;;;;;;;7.57;1.63;;;18.30;58.70;;;;;;4993930;28;20038;-76
2022/02/07 09:38:37;;;;;;;5.30;1.58;;;18.30;58.60;;;;;;4993836;28;20026;-78
2022/02/07 09:41:03;;;;;;;4.22;1.25;;;18.30;58.60;;;;;;4994631;28;20105;-77
2022/02/07 09:43:32;;;;;;;3.67;1.17;;;18.40;58.30;;;;;;4977226;28;20427;-77
2022/02/07 09:46:07;;;;;;;4.22;1.27;;;18.40;58.10;;;;;;4977176;28;20434;-77
2022/02/07 09:48:34;;;;;;;5.17;1.80;;;18.50;58.00;;;;;;4994204;28;20030;-77
2022/02/07 09:51:00;;;;;;;4.60;1.50;;;18.50;57.90;;;;;;4994339;28;20030;-77
2022/02/07 09:53:27;;;;;;;5.38;1.35;;;18.50;57.80;;;;;;4994607;28;20390;-77
2022/02/07 09:55:54;;;;;;;5.72;1.67;;;18.60;57.70;;;;;;4993942;28;20037;-77
2022/02/07 09:58:20;;;;;;;3.90;1.40;;;18.60;57.60;;;;;;4994222;28;20192;-77
2022/02/07 10:00:46;;;;;;;4.60;1.48;;;18.60;57.50;;;;;;4993781;28;20522;-77
2022/02/07 10:03:16;;;;;;;4.10;1.10;;;18.60;57.50;;;;;;4994115;28;20022;-77
2022/02/07 10:05:50;;;;;;;2.45;1.40;;;18.70;57.40;;;;;;4993882;28;20027;-77
2022/02/07 10:14:07;;;;;;;;;;;18.80;57.20;;;;;;4983726;28;20031;-76
2022/02/07 10:17:05;;;;;;;5.03;1.20;;;18.80;57.00;;;;;;4993228;28;19914;-78
2022/02/07 10:19:58;;;;;;;4.80;1.40;;;18.80;56.80;;;;;;4976314;28;20391;-77
2022/02/07 10:40:39;;;;;;;5.25;1.63;;;19.50;57.80;;;;;;5088579;28;20029;-77
2022/02/07 10:43:20;;;;;;;4.65;1.65;;;19.80;57.60;;;;;;5088505;28;20055;-76
2022/02/07 10:46:12;;;;;;;10.57;1.98;;;19.80;57.40;;;;;;5086015;28;20021;-77
2022/02/07 10:48:51;;;;;;;8.52;1.98;;;19.90;57.50;;;;;;5086743;28;20089;-76
2022/02/07 10:51:33;;;;;;;8.43;2.05;;;19.90;57.40;;;;;;5088342;28;20024;-76
2022/02/07 10:54:05;;;;;;;5.30;1.67;;;19.90;57.50;;;;;;5088648;28;20078;-77
2022/02/07 10:56:44;;;;;;;5.65;1.67;;;19.90;57.40;;;;;;5086609;28;20541;-77
2022/02/07 10:59:17;;;;;;;5.13;1.75;;;19.90;57.50;;;;;;5087622;28;20031;-77
2022/02/07 11:04:24;;;;;;;4.00;1.38;;;19.90;57.00;;;;;;5088134;28;20040;-77
2022/02/07 11:06:56;;;;;;;6.35;1.75;;;20.00;56.90;;;;;;5087923;28;20034;-78
2022/02/07 11:09:56;;;;;;;3.80;1.60;;;20.00;56.50;;;;;;5087725;28;20052;-77
2022/02/07 11:22:38;;;;;;;4.70;1.40;;;20.20;55.70;;;;;;5067437;28;20037;-77
2022/02/07 11:27:52;;;;;;;5.55;1.48;;;20.40;56.00;;;;;;5086200;28;20024;-76
2022/02/07 11:30:19;;;;;;;;;;;20.50;55.30;;;;;;5087641;28;20399;-76
2022/02/07 11:32:47;;;;;;;3.70;1.65;;;20.60;55.40;;;;;;5087087;28;19912;-76
2022/02/07 11:35:18;;;;;;;4.22;1.33;;;20.70;55.00;;;;;;5074474;28;20495;-76
2022/02/07 11:37:51;;;;;;;4.68;1.67;;;20.80;54.70;;;;;;5073704;28;20039;-76
2022/02/07 11:40:55;;;;;;;4.97;1.13;;;20.90;54.30;;;;;;5073976;28;20559;-76
2022/02/07 11:43:23;;;;;;;4.50;1.55;;;21.30;53.90;;;;;;5072306;28;20028;-83
2022/02/07 11:45:55;;;;;;;5.70;1.63;;;21.70;53.10;;;;;;5072914;28;20381;-77
2022/02/07 11:48:38;;;;;;;10.10;1.88;;;23.60;51.30;;;;;;5073425;28;20024;-78
2022/02/07 11:51:23;;;;;;;7.93;1.83;;;25.20;47.10;;;;;;5071814;28;20373;-79
2022/02/07 11:54:02;;;;;;;5.03;1.40;;;26.30;44.80;;;;;;5072730;28;20671;-79
2022/02/07 11:56:47;;;;;;;7.18;1.20;;;27.20;43.40;;;;;;5072472;28;20081;-77
2022/02/07 12:01:56;;;;;;;;;;;28.50;41.40;;;;;;5078524;28;20032;-77
2022/02/07 12:04:43;;;;;;;5.57;1.55;;;29.10;40.30;;;;;;5073234;28;19931;-78
2022/02/07 12:07:19;;;;;;;5.30;1.50;;;29.80;39.60;;;;;;5053517;28;20017;-78
2022/02/07 12:10:03;;;;;;;3.63;1.25;;;30.30;38.90;;;;;;5053002;28;20053;-78
2022/02/07 12:12:46;;;;;;;6.05;1.63;;;30.70;37.60;;;;;;5069209;28;20032;-78
2022/02/07 12:15:13;;;;;;;4.82;1.75;;;31.20;37.30;;;;;;5069634;28;20400;-79
2022/02/07 12:17:44;;;;;;;3.60;1.30;;;31.70;37.30;;;;;;5071667;28;20052;-78
2022/02/07 12:20:13;;;;;;;3.75;1.30;;;32.00;35.90;;;;;;5073167;28;20515;-79
2022/02/07 12:22:51;;;;;;;4.68;1.52;;;32.40;35.70;;;;;;5072325;28;20090;-78
2022/02/07 12:25:37;;;;;;;5.07;1.30;;;32.50;35.20;;;;;;5071739;28;20024;-78
2022/02/07 12:28:07;;;;;;;9.77;1.85;;;32.80;34.70;;;;;;5072330;28;20021;-77
2022/02/07 12:30:59;;;;;;;6.70;1.58;;;33.00;34.50;;;;;;5072375;28;20028;-77
2022/02/07 12:33:25;;;;;;;4.00;1.38;;;32.80;34.10;;;;;;5071406;28;20032;-77
2022/02/07 12:35:53;;;;;;;3.42;1.15;;;32.60;34.40;;;;;;5070887;28;20029;-77
2022/02/07 12:38:19;;;;;;;4.50;1.40;;;32.60;34.30;;;;;;5072800;28;20070;-76
2022/02/07 12:40:45;;;;;;;5.07;1.45;;;32.70;34.20;;;;;;5072001;28;20043;-77
2022/02/07 12:43:12;;;;;;;6.05;1.38;;;32.40;34.80;;;;;;5072550;28;20036;-77
2022/02/07 12:45:40;;;;;;;7.45;1.25;;;32.30;34.60;;;;;;5071407;28;20027;-77
2022/02/07 12:48:12;;;;;;;5.30;1.30;;;32.10;34.80;;;;;;5072609;28;20083;-76
2022/02/07 12:50:56;;;;;;;4.10;1.40;;;32.00;35.30;;;;;;5072320;28;20028;-76
2022/02/07 12:53:24;;;;;;;5.22;1.30;;;31.80;35.10;;;;;;5070937;28;20459;-76
2022/02/07 12:55:58;;;;;;;2.90;1.48;;;31.60;35.60;;;;;;5072501;28;20536;-77
2022/02/07 12:58:24;;;;;;;6.07;1.35;;;31.50;35.60;;;;;;5072644;28;20052;-76
2022/02/07 13:00:50;;;;;;;3.70;1.23;;;31.10;36.00;;;;;;5072337;28;20081;-76
2022/02/07 13:03:16;;;;;;;7.43;1.33;;;29.70;37.60;;;;;;5072375;28;20040;-76
2022/02/07 13:05:47;;;;;;;2.83;1.17;;;28.60;39.60;;;;;;5071626;28;20384;-76
2022/02/07 13:08:17;;;;;;;4.32;1.20;;;27.80;40.80;;;;;;5071704;28;20037;-76
2022/02/07 13:10:51;;;;;;;4.22;1.23;;;27.20;41.60;;;;;;5070392;28;20024;-76
2022/02/07 13:13:38;;;;;;;6.87;1.37;;;26.80;42.70;;;;;;5072231;28;20029;-77
2022/02/07 13:16:05;;;;;;;3.00;1.00;;;26.40;43.40;;;;;;5072093;28;20384;-77
2022/02/07 13:18:34;;;;;;;6.22;1.08;;;26.10;43.80;;;;;;5071662;28;20117;-78
2022/02/07 13:21:07;;;;;;;2.95;1.25;;;25.90;44.00;;;;;;5071003;28;20029;-77
2022/02/07 13:23:32;;;;;;;5.80;1.20;;;25.60;44.60;;;;;;5071366;28;20393;-76
2022/02/07 13:26:01;;;;;;;3.72;1.15;;;25.40;44.80;;;;;;5072216;28;20112;-76
2022/02/07 13:28:29;;;;;;;5.80;1.73;;;25.10;45.00;;;;;;5072049;28;20024;-77
2022/02/07 13:30:59;;;;;;;4.63;1.08;;;25.00;45.40;;;;;;5071223;28;20035;-77
2022/02/07 13:33:26;;;;;;;4.63;1.20;;;24.90;45.80;;;;;;5068612;28;20027;-77
2022/02/07 13:35:56;;;;;;;3.53;1.20;;;24.70;45.90;;;;;;5071426;28;20044;-78
2022/02/07 13:38:23;;;;;;;4.85;1.10;;;24.50;46.60;;;;;;5071729;28;20116;-77
2022/02/07 13:40:51;;;;;;;5.05;1.40;;;24.40;46.80;;;;;;5071400;28;20048;-77
2022/02/07 13:43:22;;;;;;;5.10;1.48;;;24.30;47.00;;;;;;5071409;28;20055;-77
2022/02/07 13:45:53;;;;;;;7.43;1.40;;;24.20;47.00;;;;;;5071234;28;20027;-76
2022/02/07 13:48:22;;;;;;;6.18;1.20;;;24.10;47.60;;;;;;5071507;28;20059;-77
2022/02/07 13:50:50;;;;;;;4.00;1.17;;;24.10;47.70;;;;;;5071200;28;20024;-78
2022/02/07 13:53:18;;;;;;;3.88;1.17;;;24.00;48.40;;;;;;5071136;28;20029;-77
2022/02/07 13:55:46;;;;;;;4.85;1.20;;;24.00;48.70;;;;;;5068924;28;20020;-78
2022/02/07 13:58:13;;;;;;;5.13;1.27;;;23.80;48.80;;;;;;5069731;28;20032;-77
2022/02/07 14:00:47;;;;;;;5.20;1.33;;;23.70;49.00;;;;;;5070576;28;20107;-77
2022/02/07 14:03:16;;;;;;;4.43;1.67;;;23.70;49.00;;;;;;5071262;28;20492;-77
2022/02/07 14:05:49;;;;;;;6.00;1.45;;;23.60;50.10;;;;;;5070534;28;20021;-77
2022/02/07 14:08:17;;;;;;;4.25;1.40;;;23.70;49.80;;;;;;5070888;28;20033;-77
2022/02/07 14:10:45;;;;;;;4.53;1.30;;;23.70;50.30;;;;;;5069649;28;20441;-78
2022/02/07 14:13:15;;;;;;;9.32;2.40;;;23.60;50.40;;;;;;5068855;28;20381;-76
2022/02/07 14:15:43;;;;;;;9.40;2.58;;;23.50;51.00;;;;;;5071009;28;20481;-77
2022/02/07 14:18:11;;;;;;;10.80;2.05;;;23.50;52.50;;;;;;5069855;28;20025;-77
2022/02/07 14:20:37;;;;;;;6.32;1.50;;;23.40;51.80;;;;;;5069540;28;20499;-77
2022/02/07 14:23:10;;;;;;;5.40;1.33;;;23.30;51.30;;;;;;5070882;28;20040;-77
2022/02/07 14:25:37;;;;;;;7.32;1.67;;;23.30;51.30;;;;;;5071376;28;20049;-77
2022/02/07 14:28:04;;;;;;;3.90;1.33;;;23.20;51.30;;;;;;5069793;28;20025;-77
2022/02/07 14:30:31;;;;;;;3.40;1.20;;;23.20;51.40;;;;;;5070832;28;20096;-76
2022/02/07 14:32:58;;;;;;;4.00;1.02;;;23.20;51.90;;;;;;5071412;28;20024;-76
2022/02/07 14:35:24;;;;;;;4.30;1.25;;;23.10;51.10;;;;;;5070987;28;20016;-76
2022/02/07 14:37:50;;;;;;;2.95;1.00;;;23.10;51.00;;;;;;5070699;28;20029;-76
2022/02/07 14:40:17;;;;;;;5.15;1.35;;;23.10;50.90;;;;;;5070984;28;20032;-76
2022/02/07 14:42:43;;;;;;;3.10;1.13;;;23.00;51.10;;;;;;5069266;28;20098;-76
2022/02/07 14:45:25;;;;;;;4.43;1.20;;;23.00;51.40;;;;;;5070895;28;20104;-76
2022/02/07 14:47:52;;;;;;;3.60;1.58;;;22.90;51.50;;;;;;5070794;28;20025;-77
2022/02/07 14:50:24;;;;;;;3.78;1.38;;;22.90;51.80;;;;;;5070771;28;20529;-77
2022/02/07 14:52:50;;;;;;;7.65;1.73;;;22.80;52.00;;;;;;5070242;28;20535;-77
2022/02/07 14:55:17;;;;;;;6.90;1.27;;;22.80;52.20;;;;;;5070797;28;20020;-76
2022/02/07 14:57:42;;;;;;;6.25;1.20;;;22.70;52.40;;;;;;5070505;28;20028;-77
2022/02/07 15:00:10;;;;;;;4.70;1.23;;;;;;;;;;5070870;28;20444;-77
2022/02/07 15:02:36;;;;;;;3.35;1.60;;;22.80;52.20;;;;;;5070217;28;20072;-76
2022/02/07 15:05:03;;;;;;;5.63;1.40;;;22.80;52.60;;;;;;5070732;28;20044;-76
2022/02/07 15:07:29;;;;;;;4.55;1.10;;;22.80;52.60;;;;;;5070201;28;20020;-78
2022/02/07 15:09:55;;;;;;;5.28;1.70;;;22.80;52.30;;;;;;5073139;28;20108;-77
2022/02/07 15:12:21;;;;;;;5.45;1.35;;;22.80;52.60;;;;;;5074330;28;20068;-77
2022/02/07 15:14:49;;;;;;;5.03;1.35;;;22.70;52.20;;;;;;5074183;28;20024;-77
2022/02/07 15:17:20;;;;;;;7.63;1.52;;;22.70;53.10;;;;;;5073006;28;20032;-78
2022/02/07 15:19:46;;;;;;;5.05;1.38;;;22.60;52.20;;;;;;5073736;28;20036;-77
2022/02/07 15:22:12;;;;;;;4.85;1.48;;;22.60;52.40;;;;;;5073989;28;20032;-77
2022/02/07 15:24:39;;;;;;;5.65;1.65;;;22.50;52.20;;;;;;5074031;28;20115;-82
2022/02/07 15:27:05;;;;;;;6.57;1.40;;;22.40;52.50;;;;;;5074098;28;20498;-77
2022/02/07 15:29:31;;;;;;;2.60;0.90;;;22.40;52.60;;;;;;5073948;28;20392;-78
2022/02/07 15:32:21;;;;;;;3.58;1.52;;;22.30;52.70;;;;;;5073041;28;20017;-77
2022/02/07 15:34:58;;;;;;;3.97;1.35;;;22.30;53.00;;;;;;5073810;28;20537;-77
2022/02/07 15:37:25;;;;;;;2.78;0.98;;;22.20;52.80;;;;;;5074012;28;20032;-77
2022/02/07 15:39:52;;;;;;;4.15;1.20;;;22.20;52.40;;;;;;5073093;28;20029;-76